EGKA Airport Information

Runway Information
Runway 02 Length 3399 ft width 59 ft
Elevation 7 ft Threshold 293 ft Heading 22
Runway 20 Length 3399 ft Width 59 ft
Elevation 7 ft Threshold 313 ft Heading 202
Runway 07 Length 2877 ft width 164 ft
Elevation 6 ft Threshold ft Heading 64
Runway 25 Length 2877 ft Width 164 ft
Elevation 6 ft Threshold ft Heading 244
Runway 13 Length 1312 ft width 98 ft
Elevation 7 ft Threshold ft Heading 125
Runway 31 Length 1312 ft Width 98 ft
Elevation 6 ft Threshold ft Heading 305
Airport Frequencies
Type A/G Name RDO Frequency 123.15 MHZ
Type APP Name APP Frequency 123.15 MHZ
Type ATIS Name ATIS Frequency 130.975 MHZ
Type TWR Name TWR Frequency 125.4 MHZ
Airport Navaids
Airport Weather Information & NOTAM
ADDS - METARS form results

(1617 UTC 05 October 2022)
Data provider http://aviationweather.gov/metar/data/
 
METAR text: EGKA 051550Z 27012KT 9999 SCT023 17/13 Q1013
Conditions at: EGKA (SHOREHAM-BY-SEA , GB) observed 1550 UTC 05 October 2022
Temperature: 17.0°C (63°F)
Dewpoint: 13.0°C (55°F) [RH = 77%]
Pressure (altimeter): 29.91 inches Hg (1013.0 mb)
Winds: from the W (270 degrees) at 14 MPH (12 knots; 6.2 m/s)
Visibility: 6 or more miles (10+ km)
Ceiling: at least 12,000 feet AGL
Clouds: scattered clouds at 2300 feet AGL
Weather: no significant weather observed at this time

METAR text: EGKA 051520Z 27016KT 9999 FEW015 BKN024 17/13 Q1013
Conditions at: EGKA (SHOREHAM-BY-SEA , GB) observed 1520 UTC 05 October 2022
Temperature: 17.0°C (63°F)
Dewpoint: 13.0°C (55°F) [RH = 77%]
Pressure (altimeter): 29.91 inches Hg (1013.0 mb)
Winds: from the W (270 degrees) at 18 MPH (16 knots; 8.2 m/s)
Visibility: 6 or more miles (10+ km)
Ceiling: 2400 feet AGL
Clouds: few clouds at 1500 feet AGL
broken clouds at 2400 feet AGL
Weather: no significant weather observed at this time

Forecast for: EGKA (SHOREHAM-BY-SEA , GB)
Text: TAF EGKA 051402Z 0515/0519 24013KT 9999 SCT015
Forecast period: 1500 to 1900 UTC 05 October 2022
Forecast type: FROM: standard forecast or significant change
Winds: from the WSW (240 degrees) at 15 MPH (13 knots; 6.7 m/s)
Visibility: 6 or more miles (10+ km)
Ceiling: at least 12,000 feet AGL
Clouds: scattered clouds at 1500 feet AGL
Weather: no significant weather forecast for this period
Text: PROB30
Forecast period: 1500 to 1900 UTC 05 October 2022
Forecast type: TEMPORARY: The following changes expected for less than half the time period
Winds: from the SW (230 degrees) at 23 MPH (20 knots; 10.3 m/s)
gusting to 34 MPH (30 knots; 15.4 m/s)
Visibility: 5 miles (8 km)
Ceiling: unknown
Clouds: missing
Weather: SHRA  (rain showers)